Time;durP1;ratioP1;P1;durP2;ratioP2;P2;SDS_P1;SDS_P2;PMS_P1;PMS_P2;Temp;Humidity;BMP_temperature;BMP_pressure;BME280_temperature;BME280_humidity;BME280_pressure;Samples;Min_cycle;Max_cycle;Signal;HPM_P1;HPM_P2
2024/01/16 00:05:48;;;;;;;;;;;0.10;99.90;;;;;;5341903;22;19924;-84
2024/01/16 00:08:14;;;;;;;;;;;0.10;99.90;;;;;;5101906;28;19892;-83
2024/01/16 00:10:40;;;;;;;;;;;0.00;99.90;;;;;;5101520;28;19904;-84
2024/01/16 02:04:04;;;;;;;;;;;0.60;99.90;;;;;;6014305;22;19995;-83
2024/01/16 02:06:30;;;;;;;;;;;0.60;99.90;;;;;;5116021;28;19936;-83
2024/01/16 02:27:03;;;;;;;;;;;0.50;99.90;;;;;;5168863;22;19924;-80
2024/01/16 02:29:29;;;;;;;;;;;0.40;99.90;;;;;;5097978;28;19939;-81
2024/01/16 02:31:54;;;;;;;;;;;0.50;99.90;;;;;;5079977;28;19976;-81
2024/01/16 02:34:20;;;;;;;;;;;0.50;99.90;;;;;;5081623;28;19899;-80
2024/01/16 02:36:46;;;;;;;;;;;1.00;99.90;;;;;;5077682;28;19908;-81
2024/01/16 02:39:12;;;;;;;;;;;0.50;99.90;;;;;;5060878;28;19909;-81
2024/01/16 02:41:37;;;;;;;;;;;0.30;99.90;;;;;;5077021;28;19912;-81
2024/01/16 02:44:03;;;;;;;;;;;0.70;99.90;;;;;;5077104;28;19900;-78
2024/01/16 02:46:29;;;;;;;;;;;0.40;99.90;;;;;;5059888;28;19912;-79
2024/01/16 02:48:54;;;;;;;;;;;0.30;99.90;;;;;;5077743;28;20357;-79
2024/01/16 02:51:20;;;;;;;;;;;0.40;99.90;;;;;;5077030;28;19915;-80
2024/01/16 02:53:46;;;;;;;;;;;1.00;99.90;;;;;;5078147;28;19976;-79
2024/01/16 02:56:11;;;;;;;;;;;0.30;99.90;;;;;;5060491;28;19893;-81
2024/01/16 02:58:37;;;;;;;;;;;0.30;99.90;;;;;;5077340;28;19913;-80
2024/01/16 03:01:03;;;;;;;;;;;0.40;99.90;;;;;;5060662;28;19909;-81
2024/01/16 03:03:28;;;;;;;;;;;0.30;99.90;;;;;;5077750;28;19916;-80
2024/01/16 03:05:55;;;;;;;;;;;0.30;99.90;;;;;;5059265;28;19924;-81
2024/01/16 03:08:21;;;;;;;;;;;0.30;99.90;;;;;;5076585;28;19958;-78
2024/01/16 03:10:47;;;;;;;;;;;0.30;99.90;;;;;;5061632;28;19913;-82
2024/01/16 03:13:13;;;;;;;;;;;0.40;99.90;;;;;;5061742;28;19912;-82
2024/01/16 03:15:39;;;;;;;;;;;0.30;99.90;;;;;;5061581;28;19909;-82
2024/01/16 03:18:05;;;;;;;;;;;0.20;99.90;;;;;;5078704;28;19897;-81
2024/01/16 03:20:30;;;;;;;;;;;0.20;99.90;;;;;;5061676;28;19916;-82
2024/01/16 03:22:56;;;;;;;;;;;0.30;99.90;;;;;;5079103;28;19904;-82
2024/01/16 03:25:22;;;;;;;;;;;0.30;99.90;;;;;;5077675;28;19909;-82
2024/01/16 03:27:47;;;;;;;;;;;0.30;99.90;;;;;;5062532;28;19919;-82
2024/01/16 03:32:49;;;;;;;;;;;0.20;99.90;;;;;;5885098;22;19924;-82
2024/01/16 03:35:14;;;;;;;;;;;0.20;99.90;;;;;;5081339;28;19904;-82
2024/01/16 03:37:40;;;;;;;;;;;-0.10;99.90;;;;;;5082485;28;19905;-83
2024/01/16 03:40:07;;;;;;;;;;;0.30;99.90;;;;;;5081461;28;19959;-82
2024/01/16 03:42:33;;;;;;;;;;;0.30;99.90;;;;;;5098500;28;19919;-82
2024/01/16 03:44:58;;;;;;;;;;;0.40;99.90;;;;;;5081614;28;19936;-83
2024/01/16 03:47:24;;;;;;;;;;;0.80;99.90;;;;;;5081814;28;19901;-82
2024/01/16 03:49:50;;;;;;;;;;;0.40;99.90;;;;;;5082375;28;19897;-83
2024/01/16 04:07:48;;;;;;;;;;;0.30;99.90;;;;;;5169957;22;19924;-80
2024/01/16 04:10:13;;;;;;;;;;;0.40;99.90;;;;;;5080760;28;19955;-82
2024/01/16 04:12:39;;;;;;;;;;;0.40;99.90;;;;;;5098021;28;19909;-83
2024/01/16 04:15:05;;;;;;;;;;;0.40;99.90;;;;;;5098151;28;19898;-84
2024/01/16 04:17:31;;;;;;;;;;;0.50;99.90;;;;;;5080922;28;19967;-83
2024/01/16 04:19:56;;;;;;;;;;;0.80;99.90;;;;;;5097593;28;19893;-83
2024/01/16 04:22:22;;;;;;;;;;;0.70;99.90;;;;;;5080347;28;19909;-82
2024/01/16 04:24:48;;;;;;;;;;;0.50;99.90;;;;;;5079464;28;19964;-82
2024/01/16 04:27:14;;;;;;;;;;;0.80;99.90;;;;;;5079884;28;19947;-83
2024/01/16 04:29:39;;;;;;;;;;;0.70;99.90;;;;;;5461009;22;19924;-82
2024/01/16 04:32:05;;;;;;;;;;;0.50;99.90;;;;;;5097480;28;20286;-82
2024/01/16 04:34:31;;;;;;;;;;;0.20;99.90;;;;;;5079498;28;19909;-82
2024/01/16 04:36:56;;;;;;;;;;;0.40;99.90;;;;;;5079513;28;19920;-82
2024/01/16 04:39:22;;;;;;;;;;;0.30;99.90;;;;;;5078747;28;19892;-82
2024/01/16 04:41:48;;;;;;;;;;;0.60;99.90;;;;;;5079222;28;19905;-82
2024/01/16 04:44:14;;;;;;;;;;;0.60;99.90;;;;;;5079555;28;19951;-81
2024/01/16 04:46:40;;;;;;;;;;;0.40;99.90;;;;;;5078927;28;19908;-82
2024/01/16 04:49:05;;;;;;;;;;;0.20;99.90;;;;;;5078456;28;19931;-82
2024/01/16 04:51:31;;;;;;;;;;;0.10;99.90;;;;;;5098496;28;19903;-82
2024/01/16 04:59:08;;;;;;;;;;;0.10;99.90;;;;;;5426804;22;19909;-83
2024/01/16 05:01:33;;;;;;;;;;;0.00;99.90;;;;;;5059800;28;19904;-81
2024/01/16 05:03:59;;;;;;;;;;;-0.10;99.90;;;;;;5047992;28;19897;-85
2024/01/16 05:09:00;;;;;;;;;;;-0.10;99.90;;;;;;5588115;22;19909;-83
2024/01/16 05:11:26;;;;;;;;;;;0.00;99.90;;;;;;5080243;28;19974;-81
2024/01/16 05:13:57;;;;;;;;;;;-0.10;99.90;;;;;;5080170;28;19915;-82
2024/01/16 05:16:23;;;;;;;;;;;-0.10;99.90;;;;;;5096790;28;19892;-82
2024/01/16 05:18:49;;;;;;;;;;;-0.10;99.90;;;;;;5080051;28;19908;-83
2024/01/16 05:21:15;;;;;;;;;;;0.00;99.90;;;;;;5080226;28;19905;-82
2024/01/16 05:23:41;;;;;;;;;;;-0.20;99.90;;;;;;5079335;28;19900;-81
2024/01/16 05:26:06;;;;;;;;;;;-0.30;99.90;;;;;;5079543;28;19984;-82
2024/01/16 05:28:32;;;;;;;;;;;-0.30;99.90;;;;;;5097681;28;19927;-83
2024/01/16 05:30:59;;;;;;;;;;;0.10;99.90;;;;;;5083330;28;19924;-82
2024/01/16 05:33:25;;;;;;;;;;;-0.40;99.90;;;;;;5101671;28;19908;-83
2024/01/16 05:35:50;;;;;;;;;;;-0.50;99.90;;;;;;5084058;28;19904;-84
2024/01/16 05:38:16;;;;;;;;;;;-0.40;99.90;;;;;;5084034;28;19935;-83
2024/01/16 05:40:42;;;;;;;;;;;-0.50;99.90;;;;;;5084240;28;19904;-83
2024/01/16 05:43:08;;;;;;;;;;;-0.10;99.90;;;;;;5084022;28;19903;-82
2024/01/16 05:45:33;;;;;;;;;;;-0.60;99.90;;;;;;5083932;28;19896;-83
2024/01/16 05:47:59;;;;;;;;;;;-0.50;99.90;;;;;;5084287;28;19896;-83
2024/01/16 05:50:25;;;;;;;;;;;-0.60;99.90;;;;;;5083029;28;19920;-81
2024/01/16 05:52:51;;;;;;;;;;;-0.60;99.90;;;;;;5079532;28;19908;-80
2024/01/16 05:55:16;;;;;;;;;;;-0.50;99.90;;;;;;5081596;28;19893;-84
2024/01/16 07:39:14;;;;;;;;;;;2.70;96.90;;;;;;3541836;22;19922;31
2024/01/16 07:41:40;;;;;;;;;;;3.00;94.90;;;;;;5072725;28;19925;-82
2024/01/16 07:44:05;;;;;;;;;;;3.00;94.20;;;;;;5056688;28;20022;-82
2024/01/16 07:46:31;;;;;;;;;;;2.90;94.00;;;;;;5056592;28;19893;-82
2024/01/16 07:48:58;;;;;;;;;;;2.70;93.80;;;;;;5073782;28;20120;-82
2024/01/16 07:51:24;;;;;;;;;;;2.70;93.90;;;;;;5055929;28;19909;-82
2024/01/16 07:54:04;;;;;;;;;;;3.00;94.10;;;;;;5059739;28;19912;-82
2024/01/16 07:56:30;;;;;;;;;;;2.50;94.00;;;;;;5093415;28;19893;-81
2024/01/16 07:58:55;;;;;;;;;;;3.00;93.80;;;;;;5093707;28;19930;-82
2024/01/16 08:01:21;;;;;;;;;;;2.70;93.60;;;;;;5093781;28;19909;-82
2024/01/16 08:03:46;;;;;;;;;;;3.60;93.10;;;;;;5093312;28;19912;-82
2024/01/16 08:06:13;;;;;;;;;;;3.40;92.00;;;;;;5076060;28;19924;-83
2024/01/16 08:08:38;;;;;;;;;;;3.80;90.90;;;;;;5092327;28;19912;-82
2024/01/16 08:11:04;;;;;;;;;;;4.20;88.60;;;;;;5092157;28;19919;-82
2024/01/16 08:13:30;;;;;;;;;;;4.60;85.30;;;;;;5092409;28;19919;-82
2024/01/16 08:15:56;;;;;;;;;;;4.80;83.60;;;;;;5091507;28;19909;-82
2024/01/16 08:18:21;;;;;;;;;;;4.50;81.80;;;;;;5092776;28;19909;-82
2024/01/16 08:20:47;;;;;;;;;;;5.30;80.80;;;;;;5074538;28;19913;-82
2024/01/16 08:23:13;;;;;;;;;;;5.00;80.30;;;;;;5091802;28;20376;-82
2024/01/16 08:25:38;;;;;;;;;;;5.40;79.40;;;;;;5091712;28;19916;-82
2024/01/16 08:28:04;;;;;;;;;;;5.70;78.50;;;;;;5092441;28;19913;-82
2024/01/16 08:30:30;;;;;;;;;;;5.20;78.20;;;;;;5092277;28;19909;-82
2024/01/16 08:32:56;;;;;;;;;;;5.40;78.00;;;;;;5091394;28;19915;-83
2024/01/16 08:35:21;;;;;;;;;;;5.00;78.40;;;;;;5091417;28;19920;-81
2024/01/16 08:37:48;;;;;;;;;;;4.90;79.50;;;;;;5092178;28;19912;-85
2024/01/16 08:40:13;;;;;;;;;;;4.60;80.40;;;;;;5081541;28;19947;-85
2024/01/16 08:42:39;;;;;;;;;;;5.00;81.30;;;;;;5098882;28;19900;-83
2024/01/16 08:45:05;;;;;;;;;;;4.30;79.80;;;;;;5091810;28;19972;-83
2024/01/16 08:47:31;;;;;;;;;;;4.30;80.80;;;;;;5090448;28;19912;-82
2024/01/16 08:49:57;;;;;;;;;;;4.50;81.50;;;;;;5091710;28;19913;-83
2024/01/16 08:52:22;;;;;;;;;;;4.00;81.40;;;;;;5073849;28;19935;-82
2024/01/16 08:54:48;;;;;;;;;;;4.20;81.90;;;;;;5092272;28;19909;-82
2024/01/16 08:57:14;;;;;;;;;;;3.80;82.30;;;;;;5092834;28;19915;-81
2024/01/16 08:59:42;;;;;;;;;;;3.60;82.50;;;;;;5092543;28;19912;-82
2024/01/16 09:02:08;;;;;;;;;;;3.50;82.80;;;;;;5091783;28;19931;-81
2024/01/16 09:04:34;;;;;;;;;;;3.90;83.60;;;;;;5095226;28;19920;-82
2024/01/16 09:07:00;;;;;;;;;;;3.70;84.10;;;;;;5189159;22;19929;-83
2024/01/16 09:09:26;;;;;;;;;;;3.30;83.80;;;;;;5058738;28;19909;-82
2024/01/16 09:11:52;;;;;;;;;;;3.20;84.00;;;;;;5075084;28;19913;-82
2024/01/16 09:14:20;;;;;;;;;;;3.10;84.80;;;;;;5076156;28;19913;-81
2024/01/16 09:16:45;;;;;;;;;;;3.70;84.90;;;;;;5075579;28;19916;-83
2024/01/16 09:19:11;;;;;;;;;;;3.10;85.00;;;;;;5058787;28;19913;-82
2024/01/16 09:21:37;;;;;;;;;;;3.00;86.00;;;;;;5059710;28;20433;-82
2024/01/16 09:24:02;;;;;;;;;;;2.70;86.10;;;;;;5058529;28;19909;-82
2024/01/16 09:26:28;;;;;;;;;;;2.90;86.60;;;;;;5057839;28;19987;-82
2024/01/16 09:28:54;;;;;;;;;;;2.90;86.90;;;;;;5057642;28;20385;-82
2024/01/16 09:31:19;;;;;;;;;;;3.10;87.60;;;;;;5057612;28;19920;-81
2024/01/16 09:33:45;;;;;;;;;;;2.90;87.60;;;;;;5058056;28;20403;-82
2024/01/16 09:36:11;;;;;;;;;;;2.70;88.20;;;;;;5075101;28;19941;-81
2024/01/16 09:38:36;;;;;;;;;;;2.60;86.90;;;;;;5058471;28;19909;-82
2024/01/16 09:41:02;;;;;;;;;;;3.50;86.70;;;;;;5058055;28;19908;-82
2024/01/16 09:43:28;;;;;;;;;;;3.10;86.40;;;;;;5057862;28;19909;-82
2024/01/16 09:46:00;;;;;;;;;;;3.30;86.70;;;;;;5074502;28;19924;-83
2024/01/16 09:48:27;;;;;;;;;;;2.80;87.30;;;;;;5076122;28;19916;-82
2024/01/16 09:50:53;;;;;;;;;;;3.30;87.10;;;;;;5058618;28;19916;-83
2024/01/16 09:53:18;;;;;;;;;;;2.90;86.30;;;;;;5057899;28;19913;-82
2024/01/16 09:55:44;;;;;;;;;;;3.30;85.80;;;;;;5075145;28;19947;-83
2024/01/16 09:58:14;;;;;;;;;;;3.00;85.50;;;;;;5058576;28;20290;-83
2024/01/16 10:00:40;;;;;;;;;;;3.30;85.50;;;;;;5057962;28;19916;-82
2024/01/16 10:03:06;;;;;;;;;;;3.20;84.80;;;;;;5057833;28;19909;-82
2024/01/16 10:05:32;;;;;;;;;;;3.60;84.80;;;;;;5057822;28;19947;-83
2024/01/16 10:07:58;;;;;;;;;;;3.20;84.20;;;;;;5075699;28;19932;-83
2024/01/16 10:10:28;;;;;;;;;;;3.60;84.40;;;;;;5075669;28;19909;-83
2024/01/16 10:12:55;;;;;;;;;;;3.10;84.20;;;;;;5057802;28;19909;-83
2024/01/16 10:15:22;;;;;;;;;;;3.10;84.50;;;;;;5057426;28;19992;-83
2024/01/16 10:17:47;;;;;;;;;;;3.30;84.80;;;;;;5057994;28;19999;-83
2024/01/16 10:20:13;;;;;;;;;;;3.30;83.90;;;;;;5075403;28;20266;-83
2024/01/16 10:22:51;;;;;;;;;;;3.10;84.40;;;;;;5057823;28;19975;-82
2024/01/16 10:25:19;;;;;;;;;;;3.10;83.80;;;;;;5058399;28;19923;-82
2024/01/16 10:27:45;;;;;;;;;;;3.40;84.10;;;;;;5076164;28;19916;-83
2024/01/16 10:30:12;;;;;;;;;;;3.10;84.00;;;;;;5076046;28;20020;-82
2024/01/16 10:32:38;;;;;;;;;;;3.00;83.70;;;;;;5058259;28;19909;-83
2024/01/16 10:35:11;;;;;;;;;;;3.10;83.20;;;;;;5057312;28;19913;-83
2024/01/16 10:37:48;;;;;;;;;;;3.20;82.90;;;;;;5075092;28;19908;-83
2024/01/16 10:40:18;;;;;;;;;;;3.10;83.30;;;;;;5057728;28;19909;-83
2024/01/16 10:42:46;;;;;;;;;;;3.20;83.70;;;;;;5075541;28;19893;-83
2024/01/16 10:45:16;;;;;;;;;;;3.20;83.50;;;;;;5074484;28;19905;-82
2024/01/16 10:47:42;;;;;;;;;;;3.00;82.00;;;;;;5057725;28;19916;-83
2024/01/16 10:50:09;;;;;;;;;;;3.30;81.30;;;;;;5074793;28;19912;-81
2024/01/16 10:52:35;;;;;;;;;;;3.20;81.20;;;;;;5074792;28;19979;-83
2024/01/16 10:55:04;;;;;;;;;;;3.80;81.80;;;;;;5057815;28;19909;-83
2024/01/16 10:57:31;;;;;;;;;;;3.50;81.90;;;;;;5075447;28;19909;-82
2024/01/16 10:59:57;;;;;;;;;;;3.40;81.70;;;;;;5057667;28;19900;-84
2024/01/16 11:02:24;;;;;;;;;;;2.90;80.60;;;;;;5057542;28;19908;-83
2024/01/16 11:04:50;;;;;;;;;;;3.60;81.40;;;;;;5074633;28;19964;-81
2024/01/16 11:07:16;;;;;;;;;;;3.40;80.50;;;;;;5075232;28;19956;-83
2024/01/16 11:09:43;;;;;;;;;;;4.30;80.60;;;;;;5058120;28;19936;-82
2024/01/16 11:12:11;;;;;;;;;;;3.50;80.20;;;;;;5057332;28;19916;-82
2024/01/16 11:14:37;;;;;;;;;;;3.60;80.40;;;;;;5074673;28;19908;-82
2024/01/16 11:17:03;;;;;;;;;;;3.70;78.60;;;;;;5073628;28;19998;-82
2024/01/16 11:19:33;;;;;;;;;;;3.70;78.00;;;;;;5057347;28;19932;-81
2024/01/16 11:21:59;;;;;;;;;;;3.30;78.10;;;;;;5074620;28;19961;-83
2024/01/16 11:24:25;;;;;;;;;;;3.50;77.90;;;;;;5073983;28;19909;-82
2024/01/16 11:26:50;;;;;;;;;;;3.50;78.10;;;;;;5056373;28;19919;-83
2024/01/16 11:29:28;;;;;;;;;;;3.50;77.60;;;;;;5056377;28;20464;-82
2024/01/16 11:31:54;;;;;;;;;;;3.30;78.10;;;;;;5057976;28;19972;-82
2024/01/16 11:34:39;;;;;;;;;;;3.20;77.50;;;;;;5077415;28;19909;-83
2024/01/16 11:37:07;;;;;;;;;;;3.10;78.30;;;;;;5060544;28;19908;-83
2024/01/16 11:39:33;;;;;;;;;;;3.30;80.00;;;;;;5077086;28;19915;-83
2024/01/16 11:41:59;;;;;;;;;;;3.40;79.20;;;;;;5076955;28;19893;-83
2024/01/16 11:44:47;;;;;;;;;;;3.40;78.40;;;;;;5076737;28;19923;-83
2024/01/16 11:47:19;;;;;;;;;;;3.40;78.20;;;;;;5059506;28;19913;-84
2024/01/16 11:49:49;;;;;;;;;;;3.50;78.80;;;;;;5076822;28;19909;-83
2024/01/16 11:52:15;;;;;;;;;;;3.60;78.90;;;;;;5058939;28;19943;-83
2024/01/16 11:54:41;;;;;;;;;;;3.80;78.50;;;;;;5059012;28;19909;-84
2024/01/16 11:57:15;;;;;;;;;;;3.80;77.30;;;;;;5058633;28;20507;-84
2024/01/16 11:59:50;;;;;;;;;;;3.80;77.60;;;;;;5076210;28;19908;-83
2024/01/16 12:02:20;;;;;;;;;;;3.80;77.10;;;;;;5076560;28;19915;-82
2024/01/16 12:04:53;;;;;;;;;;;3.90;77.60;;;;;;5058897;28;19901;-83
2024/01/16 12:07:19;;;;;;;;;;;3.70;77.60;;;;;;5058438;28;19924;-83
2024/01/16 12:09:44;;;;;;;;;;;3.80;77.10;;;;;;5076089;28;19913;-83
2024/01/16 12:12:12;;;;;;;;;;;3.80;77.00;;;;;;5075715;28;19909;-82
2024/01/16 12:14:38;;;;;;;;;;;4.10;77.00;;;;;;5058427;28;19912;-83
2024/01/16 12:17:11;;;;;;;;;;;3.70;77.40;;;;;;5057856;28;19960;-83
2024/01/16 12:19:36;;;;;;;;;;;3.70;77.50;;;;;;5058625;28;19908;-84
2024/01/16 12:22:02;;;;;;;;;;;3.60;76.90;;;;;;5058493;28;19909;-84
2024/01/16 12:24:28;;;;;;;;;;;3.70;76.40;;;;;;5059154;28;19917;-84
2024/01/16 12:26:57;;;;;;;;;;;3.70;76.80;;;;;;5059300;28;19909;-83
2024/01/16 12:29:23;;;;;;;;;;;3.80;76.70;;;;;;5076435;28;19900;-83
2024/01/16 12:31:49;;;;;;;;;;;3.60;75.80;;;;;;5076035;28;19912;-84
2024/01/16 12:34:14;;;;;;;;;;;3.80;76.10;;;;;;5058514;28;20408;-83
2024/01/16 12:36:40;;;;;;;;;;;3.70;75.80;;;;;;5058299;28;19913;-84
2024/01/16 12:39:06;;;;;;;;;;;3.70;75.70;;;;;;5058185;28;19976;-84
2024/01/16 12:41:34;;;;;;;;;;;3.70;75.70;;;;;;5076384;28;19948;-83
2024/01/16 12:44:00;;;;;;;;;;;3.70;75.10;;;;;;5058972;28;19936;-84
2024/01/16 12:46:26;;;;;;;;;;;3.80;75.50;;;;;;5058982;28;19925;-83
2024/01/16 12:48:54;;;;;;;;;;;3.90;75.10;;;;;;5058621;28;19909;-84
2024/01/16 12:51:22;;;;;;;;;;;3.90;74.50;;;;;;5075262;28;19909;-82
2024/01/16 12:53:48;;;;;;;;;;;3.90;74.40;;;;;;5057745;28;19916;-83
2024/01/16 12:56:18;;;;;;;;;;;4.30;73.20;;;;;;5057682;28;19909;-83
2024/01/16 12:58:43;;;;;;;;;;;4.10;73.00;;;;;;5075544;28;19916;-83
2024/01/16 13:01:25;;;;;;;;;;;4.60;74.30;;;;;;5058100;28;19908;-82
2024/01/16 13:03:51;;;;;;;;;;;3.80;71.60;;;;;;5057244;28;19916;-83
2024/01/16 13:06:21;;;;;;;;;;;4.30;70.90;;;;;;5058169;28;19939;-84
2024/01/16 13:08:47;;;;;;;;;;;4.30;70.20;;;;;;5074489;28;19927;-83
2024/01/16 13:11:16;;;;;;;;;;;4.50;70.70;;;;;;5057500;28;19908;-83
2024/01/16 13:13:41;;;;;;;;;;;4.20;69.90;;;;;;5058295;28;19909;-82
2024/01/16 13:16:07;;;;;;;;;;;4.20;69.50;;;;;;5058014;28;19919;-83
2024/01/16 13:18:33;;;;;;;;;;;4.40;70.00;;;;;;5075315;28;19916;-83
2024/01/16 13:21:00;;;;;;;;;;;3.80;69.60;;;;;;5074976;28;19909;-83
2024/01/16 13:23:26;;;;;;;;;;;4.10;70.00;;;;;;5057660;28;19920;-82
2024/01/16 13:25:52;;;;;;;;;;;4.00;69.60;;;;;;5075227;28;19948;-83
2024/01/16 13:28:19;;;;;;;;;;;4.00;69.30;;;;;;5075600;28;20411;-83
2024/01/16 13:30:46;;;;;;;;;;;4.00;70.30;;;;;;5075457;28;19916;-83
2024/01/16 13:33:12;;;;;;;;;;;3.80;71.70;;;;;;5058324;28;19908;-83
2024/01/16 13:35:39;;;;;;;;;;;3.70;72.30;;;;;;5057756;28;19916;-83
2024/01/16 13:38:05;;;;;;;;;;;3.70;72.20;;;;;;5057825;28;19931;-82
2024/01/16 13:40:31;;;;;;;;;;;3.60;72.20;;;;;;5058272;28;19892;-84
2024/01/16 13:42:57;;;;;;;;;;;4.00;72.20;;;;;;5059355;28;19892;-83
2024/01/16 13:45:23;;;;;;;;;;;3.70;72.50;;;;;;5058696;28;19921;-84
2024/01/16 13:47:48;;;;;;;;;;;3.40;72.90;;;;;;5058090;28;19912;-84
2024/01/16 13:50:14;;;;;;;;;;;3.40;73.60;;;;;;5075879;28;19909;-84
2024/01/16 13:52:40;;;;;;;;;;;3.30;73.20;;;;;;5078582;28;19909;-83
2024/01/16 13:55:06;;;;;;;;;;;3.90;73.80;;;;;;5061580;28;19909;-83
2024/01/16 13:57:32;;;;;;;;;;;3.30;73.00;;;;;;5061893;28;19908;-83
2024/01/16 13:59:59;;;;;;;;;;;3.20;73.70;;;;;;5078984;28;19913;-83
2024/01/16 14:02:24;;;;;;;;;;;3.20;74.40;;;;;;5061174;28;19916;-83
2024/01/16 14:04:51;;;;;;;;;;;3.10;74.70;;;;;;5078026;28;19913;-83
2024/01/16 14:07:16;;;;;;;;;;;3.10;75.10;;;;;;5060748;28;19920;-83
2024/01/16 14:09:42;;;;;;;;;;;3.10;74.70;;;;;;5060770;28;20462;-83
2024/01/16 14:12:08;;;;;;;;;;;3.10;74.50;;;;;;5060763;28;19934;-83
2024/01/16 14:14:34;;;;;;;;;;;3.50;74.60;;;;;;5078517;28;19909;-82
2024/01/16 14:17:00;;;;;;;;;;;3.00;74.70;;;;;;5061082;28;19909;-83
2024/01/16 14:19:27;;;;;;;;;;;3.40;74.90;;;;;;5061085;28;19916;-84
2024/01/16 14:21:53;;;;;;;;;;;3.00;74.90;;;;;;5078349;28;19897;-83
2024/01/16 14:24:19;;;;;;;;;;;2.90;75.00;;;;;;5061013;28;19920;-84
2024/01/16 14:26:45;;;;;;;;;;;2.90;75.00;;;;;;5060864;28;19909;-83
2024/01/16 14:29:11;;;;;;;;;;;2.80;75.30;;;;;;5078465;28;19893;-84
2024/01/16 14:31:37;;;;;;;;;;;2.30;75.40;;;;;;5061939;28;19939;-83
2024/01/16 14:34:03;;;;;;;;;;;2.90;75.20;;;;;;5061129;28;19912;-83
2024/01/16 14:36:32;;;;;;;;;;;2.70;75.50;;;;;;5078688;28;19915;-84
2024/01/16 14:38:58;;;;;;;;;;;2.50;75.70;;;;;;5061166;28;19937;-83
2024/01/16 14:41:24;;;;;;;;;;;2.70;76.20;;;;;;5061344;28;19893;-83
2024/01/16 14:43:49;;;;;;;;;;;2.50;75.80;;;;;;5060727;28;19915;-83
2024/01/16 14:46:15;;;;;;;;;;;2.50;75.90;;;;;;5061991;28;19901;-84
2024/01/16 14:48:45;;;;;;;;;;;2.50;76.00;;;;;;5061956;28;19909;-83
2024/01/16 14:51:11;;;;;;;;;;;2.40;75.80;;;;;;5061245;28;19909;-83
2024/01/16 14:53:37;;;;;;;;;;;2.40;76.00;;;;;;5078956;28;19916;-83
2024/01/16 14:56:04;;;;;;;;;;;2.60;76.30;;;;;;5079355;28;19909;-83
2024/01/16 14:58:29;;;;;;;;;;;2.30;76.20;;;;;;5061809;28;19917;-84
2024/01/16 15:00:56;;;;;;;;;;;2.20;76.20;;;;;;5061266;28;19913;-83
2024/01/16 15:03:22;;;;;;;;;;;2.50;76.50;;;;;;5060668;28;19909;-84
2024/01/16 15:05:52;;;;;;;;;;;2.10;76.50;;;;;;5060844;28;19943;-83
2024/01/16 15:08:18;;;;;;;;;;;2.10;76.70;;;;;;5058164;28;20082;-84
2024/01/16 15:10:44;;;;;;;;;;;2.20;77.00;;;;;;5058134;28;19920;-83
2024/01/16 15:13:09;;;;;;;;;;;2.60;77.60;;;;;;5058384;28;19909;-84
2024/01/16 15:15:36;;;;;;;;;;;1.90;77.50;;;;;;5058032;28;19924;-84
2024/01/16 15:18:02;;;;;;;;;;;1.90;77.90;;;;;;5058275;28;19916;-83
2024/01/16 15:20:29;;;;;;;;;;;1.80;78.90;;;;;;5057199;28;19913;-81
2024/01/16 15:22:54;;;;;;;;;;;1.70;78.50;;;;;;5057945;28;19924;-84
2024/01/16 15:25:24;;;;;;;;;;;1.70;78.70;;;;;;5057004;28;19917;-84
2024/01/16 15:27:53;;;;;;;;;;;2.10;79.20;;;;;;5058056;28;19944;-83
2024/01/16 15:30:21;;;;;;;;;;;1.70;79.30;;;;;;5057609;28;19945;-84
2024/01/16 15:32:47;;;;;;;;;;;2.20;79.80;;;;;;5057455;28;19909;-83
2024/01/16 15:35:13;;;;;;;;;;;1.70;79.90;;;;;;5056955;28;19913;-82
2024/01/16 15:37:39;;;;;;;;;;;1.60;79.80;;;;;;5057623;28;19893;-84
2024/01/16 15:40:06;;;;;;;;;;;1.50;79.80;;;;;;5057392;28;19976;-84
2024/01/16 15:42:32;;;;;;;;;;;1.50;79.80;;;;;;5058033;28;19909;-84
2024/01/16 15:44:58;;;;;;;;;;;1.70;80.20;;;;;;5057600;28;19928;-84
2024/01/16 15:47:24;;;;;;;;;;;1.50;80.60;;;;;;5057886;28;19976;-84
2024/01/16 15:49:50;;;;;;;;;;;1.50;80.50;;;;;;5058501;28;19909;-84
2024/01/16 15:52:15;;;;;;;;;;;1.60;80.70;;;;;;5058986;28;19995;-84
2024/01/16 15:54:41;;;;;;;;;;;1.20;80.60;;;;;;5059418;28;20392;-84
2024/01/16 15:57:07;;;;;;;;;;;1.00;81.10;;;;;;5058466;28;19917;-84
2024/01/16 15:59:33;;;;;;;;;;;1.20;81.80;;;;;;5057568;28;19897;-83
2024/01/16 16:01:59;;;;;;;;;;;1.00;82.50;;;;;;5058400;28;19964;-84
2024/01/16 16:04:24;;;;;;;;;;;1.10;82.70;;;;;;5058574;28;19916;-84
2024/01/16 16:06:51;;;;;;;;;;;0.90;83.90;;;;;;5061002;28;19908;-84
2024/01/16 16:09:20;;;;;;;;;;;1.00;84.40;;;;;;5078651;28;19968;-83
2024/01/16 16:11:45;;;;;;;;;;;0.80;84.40;;;;;;5061601;28;19893;-84
2024/01/16 16:14:11;;;;;;;;;;;0.80;84.10;;;;;;5061244;28;19924;-83
2024/01/16 16:16:37;;;;;;;;;;;0.70;84.20;;;;;;5061128;28;19956;-85
2024/01/16 16:19:03;;;;;;;;;;;0.70;84.90;;;;;;5078307;28;19920;-83
2024/01/16 16:21:32;;;;;;;;;;;0.60;85.20;;;;;;5061722;28;19893;-83
2024/01/16 16:23:59;;;;;;;;;;;0.50;85.50;;;;;;5061265;28;19920;-84
2024/01/16 16:26:32;;;;;;;;;;;0.50;85.50;;;;;;5078698;28;19913;-84
2024/01/16 16:29:02;;;;;;;;;;;0.50;85.30;;;;;;5078580;28;19954;-83
2024/01/16 16:31:30;;;;;;;;;;;0.50;85.40;;;;;;5061033;28;19909;-83
2024/01/16 16:33:57;;;;;;;;;;;0.70;86.10;;;;;;5078768;28;19916;-84
2024/01/16 16:36:22;;;;;;;;;;;0.40;86.00;;;;;;5078741;28;19908;-83
2024/01/16 16:38:49;;;;;;;;;;;0.40;86.30;;;;;;5078582;28;19905;-83
2024/01/16 16:41:15;;;;;;;;;;;0.00;86.20;;;;;;5078750;28;19897;-84
2024/01/16 16:43:41;;;;;;;;;;;0.20;86.70;;;;;;5061155;28;19920;-83
2024/01/16 16:48:51;;;;;;;;;;;0.30;87.30;;;;;;5400423;23;19926;-84
2024/01/16 16:51:17;;;;;;;;;;;0.20;87.70;;;;;;5468588;22;19915;-83
2024/01/16 16:53:44;;;;;;;;;;;0.30;87.70;;;;;;5074498;28;19998;-83
2024/01/16 16:56:14;;;;;;;;;;;0.30;87.60;;;;;;5074630;28;19958;-83
2024/01/16 16:58:41;;;;;;;;;;;0.30;87.50;;;;;;5073825;28;19912;-83
2024/01/16 17:01:08;;;;;;;;;;;0.50;87.50;;;;;;5074891;28;19936;-83
2024/01/16 17:03:34;;;;;;;;;;;0.50;87.00;;;;;;5075257;28;19908;-83
2024/01/16 17:06:00;;;;;;;;;;;0.50;86.60;;;;;;5074648;28;19940;-83
2024/01/16 17:08:26;;;;;;;;;;;0.80;86.50;;;;;;5074918;28;19893;-82
2024/01/16 17:10:52;;;;;;;;;;;0.80;86.70;;;;;;5075671;28;19908;-83
2024/01/16 17:13:18;;;;;;;;;;;0.40;86.70;;;;;;5075910;28;19931;-83
2024/01/16 17:15:43;;;;;;;;;;;0.30;88.10;;;;;;5074845;28;19976;-83
2024/01/16 17:18:10;;;;;;;;;;;0.20;87.90;;;;;;5075554;28;19916;-83
2024/01/16 17:20:35;;;;;;;;;;;0.20;87.90;;;;;;5076517;28;19912;-82
2024/01/16 17:23:01;;;;;;;;;;;0.80;87.30;;;;;;5076360;28;19893;-82
2024/01/16 17:25:27;;;;;;;;;;;0.50;86.50;;;;;;5077383;28;19913;-82
2024/01/16 17:27:52;;;;;;;;;;;0.70;86.30;;;;;;5076146;28;19940;-82
2024/01/16 17:30:18;;;;;;;;;;;0.50;86.10;;;;;;5078714;28;19951;-81
2024/01/16 17:32:44;;;;;;;;;;;0.40;86.30;;;;;;5062407;28;19973;-81
2024/01/16 17:35:12;;;;;;;;;;;0.90;86.20;;;;;;5058863;28;19913;-81
2024/01/16 17:37:37;;;;;;;;;;;0.50;85.70;;;;;;5073905;28;19909;-82
2024/01/16 17:40:12;;;;;;;;;;;0.70;86.60;;;;;;5058022;28;19920;-82
2024/01/16 17:42:38;;;;;;;;;;;0.30;85.80;;;;;;5059028;28;19909;-83
2024/01/16 17:45:04;;;;;;;;;;;0.40;86.10;;;;;;5059090;28;19932;-82
2024/01/16 17:47:30;;;;;;;;;;;0.30;86.10;;;;;;5057081;28;19909;-82
2024/01/16 17:49:56;;;;;;;;;;;0.60;87.40;;;;;;5057535;28;19956;-82
2024/01/16 17:52:22;;;;;;;;;;;0.30;88.00;;;;;;5077174;28;19920;-82
2024/01/16 17:54:47;;;;;;;;;;;-0.10;88.40;;;;;;5077771;28;19931;-82
2024/01/16 17:57:13;;;;;;;;;;;-0.20;89.20;;;;;;5060281;28;19909;-82
2024/01/16 17:59:40;;;;;;;;;;;-0.20;90.10;;;;;;5077808;28;19903;-82
2024/01/16 18:02:08;;;;;;;;;;;-0.30;90.20;;;;;;5078658;28;19909;-82
2024/01/16 18:04:40;;;;;;;;;;;0.10;90.60;;;;;;5080361;28;19930;-82
2024/01/16 18:07:06;;;;;;;;;;;-0.40;90.70;;;;;;5059346;28;19916;-81
2024/01/16 18:09:33;;;;;;;;;;;0.00;91.00;;;;;;5059143;28;19909;-81
2024/01/16 18:12:00;;;;;;;;;;;-0.50;91.30;;;;;;5077420;28;19909;-82
2024/01/16 18:14:26;;;;;;;;;;;-0.60;91.50;;;;;;5059190;28;19913;-80
2024/01/16 18:16:53;;;;;;;;;;;-0.60;91.70;;;;;;5076717;28;20094;-82
2024/01/16 18:19:21;;;;;;;;;;;-0.70;92.00;;;;;;5058041;28;19932;-82
2024/01/16 18:21:48;;;;;;;;;;;-0.60;92.50;;;;;;5075989;28;19909;-80
2024/01/16 18:24:17;;;;;;;;;;;-0.60;92.50;;;;;;5067914;28;19912;-82
2024/01/16 18:26:47;;;;;;;;;;;-0.50;92.60;;;;;;5099861;28;19930;-82
2024/01/16 18:29:13;;;;;;;;;;;0.30;92.80;;;;;;5099897;28;19909;-83
2024/01/16 18:31:39;;;;;;;;;;;-0.60;93.10;;;;;;5082631;28;19912;-83
2024/01/16 18:34:09;;;;;;;;;;;-0.20;93.20;;;;;;5099993;28;19976;-82
2024/01/16 18:36:35;;;;;;;;;;;-0.60;93.10;;;;;;5080893;28;19908;-82
2024/01/16 18:39:03;;;;;;;;;;;-0.40;93.30;;;;;;5099617;28;19908;-82
2024/01/16 18:41:29;;;;;;;;;;;-0.50;93.50;;;;;;5082822;28;19916;-82
2024/01/16 18:43:54;;;;;;;;;;;-0.70;93.60;;;;;;5083256;28;19908;-82
2024/01/16 18:46:22;;;;;;;;;;;-0.60;93.70;;;;;;5061848;28;19908;-81
2024/01/16 18:48:48;;;;;;;;;;;-0.60;93.70;;;;;;5061619;28;19909;-82